createdAt,value
2022-10-29T00:00:42.464Z,13.10
2022-10-29T00:03:09.644Z,13.10
2022-10-29T00:05:36.635Z,13.10
2022-10-29T00:08:03.956Z,13.10
2022-10-29T00:10:30.992Z,13.10
2022-10-29T00:13:00.489Z,13.10
2022-10-29T00:15:27.348Z,13.10
2022-10-29T00:17:54.577Z,13.00
2022-10-29T00:20:21.925Z,13.10
2022-10-29T00:22:48.685Z,13.10
2022-10-29T00:25:15.594Z,13.10
2022-10-29T00:27:42.397Z,13.10
2022-10-29T00:30:09.537Z,13.10
2022-10-29T00:32:36.594Z,13.10
2022-10-29T00:35:05.222Z,13.10
2022-10-29T00:37:32.269Z,13.10
2022-10-29T00:39:59.289Z,13.10
2022-10-29T00:42:26.032Z,13.10
2022-10-29T00:44:52.869Z,13.10
2022-10-29T00:47:23.010Z,13.10
2022-10-29T00:49:54.830Z,13.10
2022-10-29T00:52:22.912Z,13.20
2022-10-29T00:54:50.549Z,13.20
2022-10-29T00:57:21.199Z,13.20
2022-10-29T01:02:16.955Z,13.10
2022-10-29T01:04:44.049Z,13.20
2022-10-29T01:07:11.251Z,13.10
2022-10-29T01:09:38.529Z,13.10
2022-10-29T01:12:08.325Z,13.10
2022-10-29T01:14:48.999Z,13.10
2022-10-29T01:17:28.915Z,13.10
2022-10-29T01:20:09.400Z,13.10
2022-10-29T01:22:49.174Z,13.10
2022-10-29T01:25:34.513Z,13.00
2022-10-29T01:28:20.257Z,13.00
2022-10-29T01:30:47.029Z,12.90
2022-10-29T01:33:19.587Z,13.00
2022-10-29T01:35:49.301Z,12.90
2022-10-29T01:38:16.255Z,12.90
2022-10-29T01:40:43.128Z,12.90
2022-10-29T01:43:15.516Z,12.90
2022-10-29T01:45:42.280Z,12.90
2022-10-29T01:48:11.197Z,12.90
2022-10-29T01:50:40.139Z,12.90
2022-10-29T01:53:07.815Z,12.90
2022-10-29T01:55:35.458Z,12.90
2022-10-29T01:58:07.160Z,12.80
2022-10-29T02:00:46.337Z,12.80
2022-10-29T02:03:29.023Z,12.80
2022-10-29T02:05:55.876Z,12.80
2022-10-29T02:08:39.080Z,12.80
2022-10-29T02:11:26.197Z,12.80
2022-10-29T02:13:58.836Z,12.80
2022-10-29T02:16:26.632Z,12.80
2022-10-29T02:18:53.615Z,12.80
2022-10-29T02:21:21.346Z,12.80
2022-10-29T02:23:50.467Z,12.80
2022-10-29T02:26:22.915Z,12.70
2022-10-29T02:28:51.010Z,12.70
2022-10-29T02:31:18.297Z,12.70
2022-10-29T02:33:45.207Z,12.60
2022-10-29T02:36:12.223Z,12.70
2022-10-29T02:38:39.438Z,12.80
2022-10-29T02:41:06.364Z,12.70
2022-10-29T02:43:33.464Z,12.80
2022-10-29T02:46:10.307Z,12.80
2022-10-29T02:48:37.106Z,12.80
2022-10-29T02:51:04.083Z,12.80
2022-10-29T02:53:30.836Z,12.90
2022-10-29T02:55:57.606Z,12.90
2022-10-29T02:58:24.543Z,12.90
2022-10-29T03:00:52.262Z,12.90
2022-10-29T03:03:20.272Z,12.90
2022-10-29T03:05:49.082Z,12.90
2022-10-29T03:08:16.683Z,12.90
2022-10-29T03:10:43.566Z,12.90
2022-10-29T03:13:10.674Z,13.00
2022-10-29T03:15:37.938Z,13.00
2022-10-29T03:18:05.520Z,13.00
2022-10-29T03:20:32.323Z,13.00
2022-10-29T03:22:59.238Z,13.00
2022-10-29T03:25:28.330Z,13.10
2022-10-29T03:27:56.840Z,13.10
2022-10-29T03:30:25.276Z,13.20
2022-10-29T03:33:24.014Z,13.30
2022-10-29T03:35:56.135Z,13.40
2022-10-29T03:38:23.442Z,13.40
2022-10-29T03:40:53.330Z,13.50
2022-10-29T03:43:20.379Z,13.60
2022-10-29T03:48:51.316Z,13.60
2022-10-29T03:51:18.153Z,13.60
2022-10-29T03:53:46.950Z,13.70
2022-10-29T04:01:35.459Z,13.80
2022-10-29T04:04:04.086Z,13.80
2022-10-29T04:06:30.850Z,13.90
2022-10-29T04:11:54.126Z,14.00
2022-10-29T04:14:23.133Z,14.00
2022-10-29T04:16:49.923Z,14.00
2022-10-29T04:30:51.818Z,14.10
2022-10-29T04:36:14.382Z,14.20
2022-10-29T04:38:42.486Z,14.20
2022-10-29T04:41:09.424Z,14.20
2022-10-29T04:46:33.322Z,14.20
2022-10-29T04:49:00.324Z,14.30
2022-10-29T04:57:18.604Z,14.30
2022-10-29T04:59:45.568Z,14.30
2022-10-29T05:05:07.610Z,14.30
2022-10-29T05:13:23.955Z,14.20
2022-10-29T05:15:53.756Z,14.20
2022-10-29T05:21:52.648Z,14.20
2022-10-29T05:24:19.474Z,14.10
2022-10-29T05:26:46.258Z,14.10
2022-10-29T05:29:13.108Z,14.10
2022-10-29T05:31:39.832Z,14.00
2022-10-29T05:34:06.689Z,14.00
2022-10-29T05:36:33.485Z,14.00
2022-10-29T05:41:51.262Z,13.90
2022-10-29T05:44:18.136Z,13.90
2022-10-29T05:46:44.924Z,13.90
2022-10-29T05:49:13.656Z,13.90
2022-10-29T05:51:40.444Z,13.90
2022-10-29T05:54:07.442Z,13.90
2022-10-29T05:56:34.183Z,13.90
2022-10-29T05:59:00.990Z,13.80
2022-10-29T06:01:27.902Z,13.90
2022-10-29T06:03:54.848Z,13.90
2022-10-29T06:06:21.740Z,13.70
2022-10-29T06:08:48.616Z,13.70
2022-10-29T06:11:15.370Z,13.70
2022-10-29T06:13:42.198Z,13.60
2022-10-29T06:16:08.959Z,13.60
2022-10-29T06:18:35.732Z,13.50
2022-10-29T06:21:02.549Z,13.50
2022-10-29T06:23:29.687Z,13.50
2022-10-29T06:25:58.956Z,13.40
2022-10-29T06:28:28.053Z,13.40
2022-10-29T06:30:57.192Z,13.30
2022-10-29T06:33:24.123Z,13.30
2022-10-29T06:35:51.065Z,13.30
2022-10-29T06:38:17.913Z,13.20
2022-10-29T06:40:51.133Z,13.20
2022-10-29T06:43:17.972Z,13.20
2022-10-29T06:45:44.951Z,13.10
2022-10-29T06:48:11.697Z,13.10
2022-10-29T06:50:38.467Z,13.10
2022-10-29T06:53:06.196Z,13.00
2022-10-29T06:55:33.487Z,13.00
2022-10-29T06:58:01.465Z,13.00
2022-10-29T07:00:29.011Z,13.00
2022-10-29T07:02:58.418Z,13.00
2022-10-29T07:05:25.901Z,13.00
2022-10-29T07:07:57.141Z,12.90
2022-10-29T07:10:24.533Z,12.90
2022-10-29T07:12:51.406Z,12.90
2022-10-29T07:15:18.357Z,12.90
2022-10-29T07:17:54.927Z,12.90
2022-10-29T07:20:21.978Z,12.90
2022-10-29T07:22:48.742Z,12.80
2022-10-29T07:25:15.576Z,12.90
2022-10-29T07:27:42.451Z,12.80
2022-10-29T07:30:09.437Z,12.80
2022-10-29T07:32:36.243Z,12.80
2022-10-29T07:35:03.298Z,12.70
2022-10-29T07:37:30.108Z,12.80
2022-10-29T07:39:56.983Z,12.80
2022-10-29T07:42:23.893Z,12.80
2022-10-29T07:44:50.662Z,12.80
2022-10-29T07:47:17.478Z,12.80
2022-10-29T07:49:44.385Z,12.80
2022-10-29T07:52:11.166Z,12.80
2022-10-29T07:54:37.960Z,12.80
2022-10-29T07:57:05.080Z,12.80
2022-10-29T07:59:31.850Z,12.80
2022-10-29T08:01:58.658Z,12.80
2022-10-29T08:04:25.591Z,12.80
2022-10-29T08:06:52.468Z,12.90
2022-10-29T08:09:19.342Z,12.80
2022-10-29T08:14:15.791Z,12.80
2022-10-29T08:16:44.563Z,12.80
2022-10-29T08:19:11.366Z,12.80
2022-10-29T08:21:38.295Z,12.80
2022-10-29T08:24:05.323Z,12.80
2022-10-29T08:26:33.277Z,12.90
2022-10-29T08:29:00.031Z,12.90
2022-10-29T08:31:26.927Z,12.90
2022-10-29T08:33:53.750Z,12.90
2022-10-29T08:36:20.599Z,12.90
2022-10-29T08:38:47.941Z,12.90
2022-10-29T08:41:14.702Z,13.00
2022-10-29T08:43:47.435Z,13.00
2022-10-29T08:46:19.820Z,13.10
2022-10-29T08:48:48.834Z,13.10
2022-10-29T08:51:34.272Z,13.10
2022-10-29T08:54:30.264Z,13.20
2022-10-29T08:56:52.773Z,13.20
2022-10-29T08:59:26.599Z,13.30
2022-10-29T09:01:54.004Z,13.30
2022-10-29T09:04:31.296Z,13.30
2022-10-29T09:07:11.141Z,13.40
2022-10-29T09:09:38.119Z,13.40
2022-10-29T09:12:04.811Z,13.40
2022-10-29T09:14:31.626Z,13.50
2022-10-29T09:17:17.150Z,13.50
2022-10-29T09:19:43.891Z,13.50
2022-10-29T09:22:28.318Z,13.60
2022-10-29T09:25:01.280Z,13.60
2022-10-29T09:27:37.278Z,13.60
2022-10-29T09:30:11.908Z,13.70
2022-10-29T09:32:42.872Z,13.80
2022-10-29T09:35:14.887Z,13.70
2022-10-29T09:37:41.775Z,13.70
2022-10-29T09:40:21.088Z,13.70
2022-10-29T09:42:48.126Z,13.80
2022-10-29T09:45:16.181Z,13.80
2022-10-29T09:47:43.005Z,13.80
2022-10-29T09:50:09.898Z,13.80
2022-10-29T09:52:39.246Z,13.80
2022-10-29T09:55:07.763Z,13.70
2022-10-29T09:57:35.898Z,13.70
2022-10-29T10:00:07.393Z,13.60
2022-10-29T10:02:45.240Z,13.70
2022-10-29T10:05:12.142Z,13.70
2022-10-29T10:07:39.179Z,13.70
2022-10-29T10:10:07.210Z,13.80
2022-10-29T10:12:37.022Z,13.80
2022-10-29T10:15:06.684Z,13.80
2022-10-29T10:17:52.189Z,13.90
2022-10-29T10:20:30.095Z,13.90
2022-10-29T10:22:57.123Z,13.90
2022-10-29T10:25:40.508Z,13.90
2022-10-29T10:28:16.508Z,13.90
2022-10-29T10:30:43.625Z,14.00
2022-10-29T10:33:28.659Z,14.00
2022-10-29T10:35:55.592Z,14.10
2022-10-29T10:38:22.477Z,14.20
2022-10-29T10:40:56.421Z,14.20
2022-10-29T10:43:24.655Z,14.20
2022-10-29T10:46:03.720Z,14.30
2022-10-29T10:48:33.802Z,14.40
2022-10-29T10:51:19.969Z,14.50
2022-10-29T10:53:46.894Z,14.60
2022-10-29T10:56:16.511Z,14.60
2022-10-29T10:58:46.673Z,14.60
2022-10-29T11:01:15.984Z,14.70
2022-10-29T11:03:47.427Z,14.60
2022-10-29T11:06:17.311Z,14.70
2022-10-29T11:08:46.560Z,14.70
2022-10-29T11:11:19.876Z,14.70
2022-10-29T11:13:47.914Z,14.70
2022-10-29T11:16:33.033Z,14.70
2022-10-29T11:19:10.983Z,14.60
2022-10-29T11:21:45.858Z,14.50
2022-10-29T11:24:18.417Z,14.40
2022-10-29T11:26:50.267Z,14.30
2022-10-29T11:29:30.165Z,14.40
2022-10-29T11:32:05.000Z,14.30
2022-10-29T11:34:38.066Z,14.20
2022-10-29T11:37:20.299Z,14.10
2022-10-29T11:40:22.696Z,14.10
2022-10-29T11:42:49.750Z,14.00
2022-10-29T11:45:32.573Z,14.00
2022-10-29T11:47:59.689Z,14.00
2022-10-29T11:50:50.130Z,14.00
2022-10-29T11:53:16.918Z,14.00
2022-10-29T11:55:46.535Z,14.00
2022-10-29T11:58:26.603Z,14.10
2022-10-29T12:00:53.356Z,14.10
2022-10-29T12:03:25.869Z,14.10
2022-10-29T12:05:52.732Z,14.10
2022-10-29T12:08:22.073Z,14.10
2022-10-29T12:10:48.925Z,14.00
2022-10-29T12:13:15.656Z,14.00
2022-10-29T12:15:50.819Z,13.90
2022-10-29T12:18:23.077Z,13.90
2022-10-29T12:23:57.261Z,13.80
2022-10-29T12:26:33.464Z,13.80
2022-10-29T12:29:03.409Z,13.80
2022-10-29T12:31:31.713Z,13.90
2022-10-29T12:34:03.803Z,13.90
2022-10-29T12:36:30.721Z,13.90
2022-10-29T12:38:58.036Z,13.90
2022-10-29T12:41:27.302Z,13.90
2022-10-29T12:43:59.386Z,13.90
2022-10-29T12:46:36.169Z,13.90
2022-10-29T12:49:24.684Z,13.90
2022-10-29T12:52:01.077Z,13.90
2022-10-29T12:54:28.115Z,13.90
2022-10-29T12:56:58.591Z,14.00
2022-10-29T12:59:25.494Z,14.00
2022-10-29T13:04:59.399Z,13.90
2022-10-29T13:07:26.499Z,14.00
2022-10-29T13:10:12.299Z,14.00
2022-10-29T13:12:58.057Z,14.00
2022-10-29T13:15:32.392Z,14.10
2022-10-29T13:18:10.533Z,14.00
2022-10-29T13:20:39.864Z,14.00
2022-10-29T13:23:22.125Z,14.00
2022-10-29T13:25:49.231Z,14.10
2022-10-29T13:28:16.332Z,14.10
2022-10-29T13:30:44.708Z,14.10
2022-10-29T13:33:20.733Z,14.10
2022-10-29T13:35:59.592Z,14.10
2022-10-29T13:38:35.714Z,14.10
2022-10-29T13:41:14.290Z,14.10
2022-10-29T13:43:42.872Z,14.20
2022-10-29T13:46:09.722Z,14.10
2022-10-29T13:48:37.051Z,14.10
2022-10-29T13:51:06.838Z,14.10
2022-10-29T13:53:46.480Z,14.10
2022-10-29T13:56:17.533Z,14.10
2022-10-29T13:58:44.711Z,14.10
2022-10-29T14:01:14.456Z,14.10
2022-10-29T14:03:47.106Z,14.00
2022-10-29T14:06:18.742Z,14.10
2022-10-29T14:09:08.210Z,14.20
2022-10-29T14:11:44.438Z,14.20
2022-10-29T14:14:26.612Z,14.10
2022-10-29T14:17:08.818Z,14.10
2022-10-29T14:19:35.871Z,14.10
2022-10-29T14:22:02.861Z,14.10
2022-10-29T14:24:37.205Z,14.10
2022-10-29T14:27:07.973Z,13.90
2022-10-29T14:29:34.794Z,14.00
2022-10-29T14:32:04.571Z,14.00
2022-10-29T14:34:31.643Z,14.00
2022-10-29T14:37:03.587Z,13.90
2022-10-29T14:39:58.996Z,13.90
2022-10-29T14:42:34.872Z,13.90
2022-10-29T14:45:03.619Z,13.70
2022-10-29T14:47:33.900Z,13.80
2022-10-29T14:50:02.964Z,13.80
2022-10-29T14:52:30.944Z,13.80
2022-10-29T14:55:20.951Z,13.70
2022-10-29T14:57:49.758Z,13.70
2022-10-29T15:00:27.313Z,13.70
2022-10-29T15:02:55.568Z,13.60
2022-10-29T15:05:25.857Z,13.60
2022-10-29T15:08:03.821Z,13.50
2022-10-29T15:10:30.967Z,13.40
2022-10-29T15:12:58.063Z,13.40
2022-10-29T15:15:26.052Z,13.40
2022-10-29T15:17:53.205Z,13.40
2022-10-29T15:20:24.222Z,13.40
2022-10-29T15:22:55.955Z,13.40
2022-10-29T15:25:24.429Z,13.40
2022-10-29T15:27:52.056Z,13.40
2022-10-29T15:30:20.212Z,13.30
2022-10-29T15:32:48.096Z,13.30
2022-10-29T15:35:21.684Z,13.20
2022-10-29T15:37:48.713Z,13.20
2022-10-29T15:40:19.730Z,13.20
2022-10-29T15:42:47.213Z,13.20
2022-10-29T15:45:17.166Z,13.20
2022-10-29T15:47:52.137Z,13.10
2022-10-29T15:50:23.380Z,13.10
2022-10-29T15:52:54.968Z,13.10
2022-10-29T15:55:26.747Z,13.10
2022-10-29T15:57:55.463Z,13.00
2022-10-29T16:00:23.424Z,13.00
2022-10-29T16:02:51.351Z,13.00
2022-10-29T16:05:18.667Z,12.90
2022-10-29T16:07:46.456Z,12.90
2022-10-29T16:10:16.813Z,12.90
2022-10-29T16:12:43.853Z,12.90
2022-10-29T16:15:14.885Z,12.80
2022-10-29T16:17:41.879Z,12.80
2022-10-29T16:20:09.987Z,12.80
2022-10-29T16:22:36.850Z,12.80
2022-10-29T16:25:04.093Z,12.70
2022-10-29T16:27:31.042Z,12.70
2022-10-29T16:29:57.995Z,12.70
2022-10-29T16:32:25.595Z,12.70
2022-10-29T16:34:52.914Z,12.70
2022-10-29T16:37:20.823Z,12.60
2022-10-29T16:39:47.968Z,12.60
2022-10-29T16:42:23.929Z,12.60
2022-10-29T16:44:50.855Z,12.60
2022-10-29T16:47:17.820Z,12.60
2022-10-29T16:49:44.789Z,12.60
2022-10-29T16:52:11.702Z,12.50
2022-10-29T16:54:38.614Z,12.50
2022-10-29T16:57:05.710Z,12.50
2022-10-29T16:59:32.681Z,12.50
2022-10-29T17:02:00.860Z,12.40
2022-10-29T17:04:28.074Z,12.40
2022-10-29T17:06:55.028Z,12.40
2022-10-29T17:09:25.614Z,12.40
2022-10-29T17:11:52.710Z,12.30
2022-10-29T17:14:19.769Z,12.30
2022-10-29T17:16:46.687Z,12.30
2022-10-29T17:19:13.605Z,12.20
2022-10-29T17:21:40.759Z,12.30
2022-10-29T17:24:08.150Z,12.10
2022-10-29T17:26:35.004Z,12.20
2022-10-29T17:29:02.173Z,12.20
2022-10-29T17:31:30.342Z,12.10
2022-10-29T17:33:57.290Z,12.10
2022-10-29T17:36:24.203Z,12.00
2022-10-29T17:38:51.125Z,12.00
2022-10-29T17:41:17.994Z,12.10
2022-10-29T17:43:44.916Z,12.00
2022-10-29T17:46:11.743Z,11.90
2022-10-29T17:48:39.141Z,11.90
2022-10-29T17:51:06.115Z,11.90
2022-10-29T17:53:33.087Z,11.80
2022-10-29T17:56:00.611Z,11.90
2022-10-29T17:58:27.936Z,11.90
2022-10-29T18:00:54.947Z,11.90
2022-10-29T18:03:25.741Z,11.80
2022-10-29T18:05:52.702Z,11.80
2022-10-29T18:08:19.721Z,11.80
2022-10-29T18:10:46.899Z,11.70
2022-10-29T18:13:13.903Z,11.70
2022-10-29T18:15:40.725Z,11.60
2022-10-29T18:18:07.650Z,11.60
2022-10-29T18:20:34.719Z,11.50
2022-10-29T18:23:02.506Z,11.50
2022-10-29T18:25:29.805Z,11.50
2022-10-29T18:27:57.043Z,11.50
2022-10-29T18:30:24.203Z,11.50
2022-10-29T18:32:51.262Z,11.50
2022-10-29T18:35:18.116Z,11.50
2022-10-29T18:37:46.158Z,11.50
2022-10-29T18:40:13.417Z,11.50
2022-10-29T18:42:40.312Z,11.40
2022-10-29T18:45:07.447Z,11.40
2022-10-29T18:47:34.273Z,11.30
2022-10-29T18:50:01.109Z,11.40
2022-10-29T18:52:28.160Z,11.30
2022-10-29T18:54:55.275Z,11.30
2022-10-29T18:57:22.090Z,11.20
2022-10-29T18:59:49.219Z,11.20
2022-10-29T19:02:16.397Z,11.20
2022-10-29T19:04:43.564Z,11.20
2022-10-29T19:07:10.633Z,11.20
2022-10-29T19:09:37.534Z,11.20
2022-10-29T19:12:04.422Z,11.20
2022-10-29T19:14:31.347Z,11.10
2022-10-29T19:16:58.474Z,11.10
2022-10-29T19:19:25.259Z,11.20
2022-10-29T19:21:52.363Z,11.20
2022-10-29T19:24:19.249Z,11.10
2022-10-29T19:26:46.351Z,11.10
2022-10-29T19:29:13.433Z,11.20
2022-10-29T19:31:40.547Z,11.10
2022-10-29T19:34:08.181Z,11.10
2022-10-29T19:36:36.231Z,11.10
2022-10-29T19:39:04.546Z,11.00
2022-10-29T19:41:31.963Z,11.00
2022-10-29T19:44:00.187Z,11.00
2022-10-29T19:46:27.160Z,11.00
2022-10-29T19:48:55.316Z,11.00
2022-10-29T19:51:22.264Z,11.00
2022-10-29T19:53:51.088Z,11.00
2022-10-29T19:56:18.593Z,11.00
2022-10-29T19:58:45.875Z,11.00
2022-10-29T20:01:17.796Z,11.00
2022-10-29T20:03:44.750Z,10.90
2022-10-29T20:06:11.952Z,10.90
2022-10-29T20:08:38.764Z,10.80
2022-10-29T20:11:05.888Z,10.80
2022-10-29T20:13:33.061Z,10.80
2022-10-29T20:16:01.506Z,10.80
2022-10-29T20:18:28.476Z,10.80
2022-10-29T20:20:56.103Z,10.80
2022-10-29T20:23:23.377Z,10.80
2022-10-29T20:25:50.387Z,10.70
2022-10-29T20:28:17.305Z,10.70
2022-10-29T20:30:44.376Z,10.70
2022-10-29T20:33:11.664Z,10.60
2022-10-29T20:35:38.764Z,10.60
2022-10-29T20:38:06.058Z,10.60
2022-10-29T20:40:32.984Z,10.50
2022-10-29T20:43:00.295Z,10.50
2022-10-29T20:45:27.377Z,10.50
2022-10-29T20:47:54.540Z,10.50
2022-10-29T20:50:21.919Z,10.50
2022-10-29T20:52:50.710Z,10.50
2022-10-29T20:55:17.836Z,10.50
2022-10-29T20:57:44.654Z,10.40
2022-10-29T21:00:12.018Z,10.40
2022-10-29T21:02:38.877Z,10.40
2022-10-29T21:05:05.752Z,10.40
2022-10-29T21:07:32.728Z,10.20
2022-10-29T21:09:59.684Z,10.20
2022-10-29T21:12:26.722Z,10.10
2022-10-29T21:14:53.588Z,10.10
2022-10-29T21:17:22.273Z,10.10
2022-10-29T21:19:49.376Z,10.00
2022-10-29T21:22:19.220Z,10.10
2022-10-29T21:24:46.578Z,10.10
2022-10-29T21:27:14.218Z,10.00
2022-10-29T21:29:41.020Z,10.00
2022-10-29T21:32:11.397Z,10.00
2022-10-29T21:34:41.177Z,9.90
2022-10-29T21:37:08.047Z,9.90
2022-10-29T21:39:35.854Z,9.90
2022-10-29T21:42:05.412Z,9.80
2022-10-29T21:44:32.415Z,9.80
2022-10-29T21:46:59.495Z,9.80
2022-10-29T21:49:26.430Z,9.80
2022-10-29T21:51:53.350Z,9.80
2022-10-29T21:54:24.301Z,9.70
2022-10-29T21:56:52.997Z,9.70
2022-10-29T21:59:19.770Z,9.60
2022-10-29T22:01:46.784Z,9.40
2022-10-29T22:04:13.717Z,9.40
2022-10-29T22:06:40.762Z,9.50
2022-10-29T22:09:07.595Z,9.50
2022-10-29T22:11:34.448Z,9.50
2022-10-29T22:14:01.316Z,9.50
2022-10-29T22:16:28.189Z,9.40
2022-10-29T22:18:55.126Z,9.40
2022-10-29T22:21:23.062Z,9.30
2022-10-29T22:23:51.238Z,9.30
2022-10-29T22:26:19.309Z,9.20
2022-10-29T22:28:47.583Z,9.20
2022-10-29T22:31:15.247Z,9.30
2022-10-29T22:33:43.142Z,9.30
2022-10-29T22:36:14.326Z,9.30
2022-10-29T22:38:41.522Z,9.20
2022-10-29T22:41:09.665Z,9.20
2022-10-29T22:43:36.845Z,9.20
2022-10-29T22:46:04.202Z,9.20
2022-10-29T22:48:31.273Z,9.20
2022-10-29T22:51:01.094Z,9.00
2022-10-29T22:53:28.541Z,9.00
2022-10-29T22:55:55.667Z,9.00
2022-10-29T22:58:23.034Z,9.10
2022-10-29T23:00:50.292Z,9.10
2022-10-29T23:03:17.106Z,9.10
2022-10-29T23:05:44.057Z,9.10
2022-10-29T23:08:11.256Z,9.00
2022-10-29T23:10:38.408Z,9.10
2022-10-29T23:13:05.279Z,9.00
2022-10-29T23:15:32.796Z,9.00
2022-10-29T23:17:59.874Z,9.00
2022-10-29T23:20:27.031Z,8.90
2022-10-29T23:22:54.370Z,8.80
2022-10-29T23:25:21.542Z,8.70
2022-10-29T23:27:48.370Z,8.80
2022-10-29T23:30:15.502Z,8.70
2022-10-29T23:32:42.396Z,8.70
2022-10-29T23:35:09.226Z,8.70
2022-10-29T23:37:36.148Z,8.60
2022-10-29T23:40:03.209Z,8.70
2022-10-29T23:42:30.064Z,8.70
2022-10-29T23:44:57.258Z,8.60
2022-10-29T23:47:24.061Z,8.50
2022-10-29T23:49:50.962Z,8.50
2022-10-29T23:52:18.154Z,8.30
2022-10-29T23:54:44.984Z,8.30
2022-10-29T23:57:11.841Z,8.20
2022-10-29T23:59:38.886Z,8.30
